Time;durP1;ratioP1;P1;durP2;ratioP2;P2;SDS_P1;SDS_P2;PMS_P1;PMS_P2;Temp;Humidity;BMP_temperature;BMP_pressure;BME280_temperature;BME280_humidity;BME280_pressure;Samples;Min_cycle;Max_cycle;Signal;HPM_P1;HPM_P2
2022/08/12 00:43:33;;;;;;;6.53;2.13;;;;;;;16.68;54.21;94153.38;5009231;28;20707;-69
2022/08/12 00:46:35;;;;;;;6.77;2.20;;;;;;;16.61;54.48;94157.22;5007919;28;20291;-69
2022/08/12 00:49:22;;;;;;;5.30;2.43;;;;;;;16.62;54.47;94155.88;5014519;28;20219;-70
2022/08/12 00:52:11;;;;;;;2.20;2.00;;;;;;;16.52;54.89;94148.31;5012710;28;20192;-68
2022/08/12 00:54:59;;;;;;;3.10;2.17;;;;;;;16.43;54.99;94152.06;5002549;28;20877;-68
2022/08/12 00:57:47;;;;;;;2.07;1.97;;;;;;;16.64;54.63;94153.16;5008506;28;20254;-70
2022/08/12 01:00:33;;;;;;;2.63;2.07;;;;;;;16.53;54.79;94146.94;5011819;28;20191;-68
2022/08/12 01:03:19;;;;;;;4.37;2.20;;;;;;;16.72;54.26;94150.75;5008696;28;20204;-68
2022/08/12 01:12:11;;;;;;;2.30;1.67;;;;;;;16.73;54.25;94143.72;5003893;28;20294;-69
2022/08/12 01:14:56;;;;;;;2.93;2.10;;;;;;;16.58;55.31;94145.81;5000924;28;20284;-68
2022/08/12 01:17:43;;;;;;;4.23;2.10;;;;;;;16.41;55.93;94140.66;5000139;28;20212;-68
2022/08/12 01:21:15;;;;;;;3.43;2.27;;;;;;;16.38;56.13;94139.06;5005724;28;20200;-68
2022/08/12 01:24:27;;;;;;;4.60;2.60;;;;;;;16.25;56.71;94136.94;5007968;28;20210;-69
2022/08/12 01:27:14;;;;;;;5.17;2.30;;;;;;;16.34;56.53;94135.28;5004418;28;20229;-68
2022/08/12 01:30:00;;;;;;;2.80;2.00;;;;;;;16.24;56.81;94141.13;5004850;28;20219;-68
2022/08/12 01:32:47;;;;;;;4.07;2.30;;;;;;;16.31;56.58;94134.44;5007366;28;20203;-69
2022/08/12 01:35:33;;;;;;;2.17;1.93;;;;;;;16.04;57.40;94128.75;5009996;28;20195;-69
2022/08/12 01:38:21;;;;;;;4.27;2.00;;;;;;;16.08;57.21;94129.69;5005119;28;20196;-69
2022/08/12 01:41:10;;;;;;;3.30;2.20;;;;;;;16.08;57.29;94134.63;4990355;28;20203;-69
2022/08/12 01:43:57;;;;;;;4.63;2.10;;;;;;;15.95;57.49;94126.81;4999099;28;20636;-69
2022/08/12 01:47:10;;;;;;;3.13;2.00;;;;;;;15.98;57.59;94125.59;5004635;28;20207;-68
2022/08/12 01:50:15;;;;;;;2.60;2.07;;;;;;;15.85;57.94;94118.53;5004038;28;20215;-69
2022/08/12 01:53:09;;;;;;;4.50;2.20;;;;;;;15.66;58.42;94116.81;5000830;28;20295;-68
2022/08/12 01:55:55;;;;;;;2.60;2.00;;;;;;;15.68;58.67;94118.97;4995009;28;20200;-69
2022/08/12 02:01:50;;;;;;;2.60;2.13;;;;;;;15.52;59.02;94110.34;5006291;28;20211;-69
2022/08/12 02:11:27;;;;;;;3.63;2.50;;;;;;;15.39;59.37;94113.81;5001665;28;20212;-69
2022/08/12 02:14:44;;;;;;;2.87;2.37;;;;;;;15.35;59.95;94113.59;5010380;28;20203;-69
2022/08/12 02:17:40;;;;;;;4.80;2.13;;;;;;;15.21;60.18;94115.63;4998074;28;20221;-68
2022/08/12 02:20:34;;;;;;;3.67;2.10;;;;;;;15.15;60.18;94113.19;5000562;28;20571;-69
2022/08/12 02:23:26;;;;;;;2.70;2.50;;;;;;;15.36;59.57;94112.25;5010649;28;20192;-69
2022/08/12 02:26:14;;;;;;;2.63;2.20;;;;;;;15.16;60.08;94111.09;4997130;28;20200;-69
2022/08/12 02:29:00;;;;;;;4.43;2.60;;;;;;;15.30;59.80;94103.44;5004436;28;20536;-69
2022/08/12 02:31:46;;;;;;;3.87;2.20;;;;;;;15.46;58.77;94101.53;5002035;28;20255;-69
2022/08/12 02:34:32;;;;;;;2.73;2.50;;;;;;;15.39;59.04;94097.63;5002707;28;20829;-69
2022/08/12 02:37:17;;;;;;;5.57;2.30;;;;;;;15.50;58.87;94098.91;5008070;28;20195;-68
2022/08/12 02:40:02;;;;;;;5.03;2.60;;;;;;;15.48;59.04;94093.16;5011435;28;20196;-68
2022/08/12 02:43:11;;;;;;;4.27;2.40;;;;;;;15.56;59.05;94087.97;5000135;28;20673;-69
2022/08/12 02:46:09;;;;;;;4.00;2.50;;;;;;;15.59;59.07;94092.41;5002185;28;20196;-68
2022/08/12 02:49:16;;;;;;;7.47;2.77;;;;;;;15.33;60.03;94093.72;5011944;28;20231;-68
2022/08/12 02:52:01;;;;;;;5.00;2.40;;;;;;;15.58;58.98;94093.75;5001882;28;20279;-67
2022/08/12 02:54:52;;;;;;;3.40;2.73;;;;;;;15.55;59.00;94080.88;4998668;28;20251;-69
2022/08/12 02:57:36;;;;;;;2.43;2.17;;;;;;;15.63;58.81;94086.97;5000066;28;20247;-69
2022/08/12 03:00:22;;;;;;;2.80;2.23;;;;;;;15.73;58.15;94090.34;5004199;28;20725;-69
2022/08/12 03:03:09;;;;;;;2.87;2.43;;;;;;;15.71;58.17;94087.41;5005052;28;20290;-68
2022/08/12 03:06:02;;;;;;;4.33;2.27;;;;;;;15.75;57.68;94092.53;5003382;28;20220;-69
2022/08/12 03:08:48;;;;;;;6.30;2.55;;;;;;;15.76;57.82;94094.75;5001326;28;20204;-68
2022/08/12 03:11:57;;;;;;;6.67;2.60;;;;;;;15.86;57.46;94093.84;5004738;28;20456;-67
2022/08/12 03:14:42;;;;;;;4.13;2.53;;;;;;;15.78;57.74;94094.88;4999314;28;20228;-68
2022/08/12 03:17:45;;;;;;;4.73;2.27;;;;;;;15.56;58.20;94099.28;5006366;28;20200;-68
2022/08/12 03:20:39;;;;;;;2.57;2.37;;;;;;;15.67;58.23;94098.50;5002880;28;20199;-68
2022/08/12 03:23:23;;;;;;;3.40;2.70;;;;;;;15.44;58.95;94101.41;5010968;28;20196;-67
2022/08/12 03:26:08;;;;;;;3.87;2.43;;;;;;;15.52;58.68;94099.06;5003162;28;20282;-68
2022/08/12 03:28:56;;;;;;;2.53;2.20;;;;;;;15.52;58.96;94092.66;5009996;28;20214;-67
2022/08/12 03:31:42;;;;;;;4.30;2.60;;;;;;;15.05;60.52;94092.13;4998951;28;20673;-69
2022/08/12 03:34:32;;;;;;;3.43;2.43;;;;;;;15.23;59.88;94101.63;4992897;28;20212;-69
2022/08/12 03:37:19;;;;;;;5.07;2.63;;;;;;;15.08;60.65;94096.50;5007085;28;20201;-69
2022/08/12 03:40:03;;;;;;;3.10;2.43;;;;;;;14.95;61.08;94101.47;5007810;28;20559;-68
2022/08/12 04:01:11;;;;;;;4.70;2.90;;;;;;;14.59;62.58;94093.69;5006778;28;20223;-67
2022/08/12 04:03:56;;;;;;;5.80;2.50;;;;;;;14.54;62.47;94089.16;5004302;28;20203;-68
2022/08/12 04:06:45;;;;;;;7.97;2.83;;;;;;;14.50;62.53;94089.66;5000218;28;20563;-67
2022/08/12 04:09:30;;;;;;;8.47;3.50;;;;;;;14.48;62.85;94091.63;4996519;28;20221;-67
2022/08/12 04:15:18;;;;;;;2.73;2.50;;;;;;;14.41;63.26;94095.44;5003318;28;20235;-67
2022/08/12 04:18:02;;;;;;;4.43;2.70;;;;;;;14.36;63.53;94088.78;4999300;28;20269;-67
2022/08/12 04:20:47;;;;;;;5.33;2.93;;;;;;;14.41;63.64;94093.34;5005831;28;20196;-66
2022/08/12 04:23:32;;;;;;;3.67;3.10;;;;;;;14.39;63.43;94093.22;4996115;28;20228;-67
2022/08/12 04:26:16;;;;;;;8.03;3.10;;;;;;;14.43;63.40;94095.56;5008517;28;20196;-67
2022/08/12 04:29:02;;;;;;;3.93;2.63;;;;;;;14.40;63.76;94094.69;5019257;28;20648;-67
2022/08/12 04:31:48;;;;;;;2.60;2.40;;;;;;;14.44;63.83;94094.22;4998594;28;20204;-68
2022/08/12 04:34:32;;;;;;;5.20;3.00;;;;;;;14.36;63.39;94093.69;5004259;28;20196;-68
2022/08/12 04:37:17;;;;;;;5.03;2.50;;;;;;;14.37;63.42;94095.16;4998528;28;20629;-68
2022/08/12 04:40:01;;;;;;;2.90;2.20;;;;;;;14.39;63.20;94092.47;5002607;28;20677;-69
2022/08/12 04:42:46;;;;;;;4.40;2.50;;;;;;;14.44;63.45;94105.50;5012657;28;20572;-67
2022/08/12 04:45:31;;;;;;;4.47;2.43;;;;;;;14.50;63.17;94103.03;5004135;28;20199;-68
2022/08/12 04:48:15;;;;;;;4.07;2.50;;;;;;;14.66;62.80;94098.34;5007622;28;20219;-68
2022/08/12 04:51:00;;;;;;;3.40;2.60;;;;;;;14.97;62.18;94103.66;5007682;28;20571;-68
2022/08/12 04:53:46;;;;;;;3.93;2.50;;;;;;;14.64;62.54;94101.03;5005451;28;20195;-70
2022/08/12 04:56:31;;;;;;;3.53;2.93;;;;;;;14.79;62.25;94100.53;5008521;28;20271;-67
2022/08/12 04:59:15;;;;;;;4.73;2.30;;;;;;;15.09;61.72;94097.97;5005690;28;20239;-68
2022/08/12 05:01:59;;;;;;;4.77;2.60;;;;;;;14.96;61.62;94107.84;5007436;28;20743;-68
2022/08/12 05:04:46;;;;;;;4.60;2.77;;;;;;;15.20;61.23;94105.66;5006005;28;20224;-67
2022/08/12 05:07:30;;;;;;;5.07;2.60;;;;;;;15.40;60.49;94104.00;4999348;28;20207;-68
2022/08/12 05:10:20;;;;;;;2.93;2.63;;;;;;;15.70;60.19;94102.91;5008257;28;20688;-67
2022/08/12 05:13:10;;;;;;;10.33;2.93;;;;;;;15.78;60.01;94114.66;5007913;28;20685;-67
2022/08/12 05:15:55;;;;;;;3.57;2.33;;;;;;;16.01;59.62;94121.50;5004860;28;20211;-67
2022/08/12 05:18:39;;;;;;;3.47;2.40;;;;;;;15.87;59.61;94110.16;5003185;28;20658;-68
2022/08/12 05:21:23;;;;;;;4.70;2.67;;;;;;;15.98;59.71;94114.28;5000639;28;20204;-68
2022/08/12 05:24:07;;;;;;;5.57;2.60;;;;;;;16.14;59.08;94120.81;5003930;28;20578;-69
2022/08/12 05:26:51;;;;;;;4.27;2.07;;;;;;;16.35;58.63;94123.38;5002916;28;20783;-68
2022/08/12 05:29:36;;;;;;;4.00;2.60;;;;;;;16.85;57.31;94124.56;4998758;28;20311;-68
2022/08/12 05:32:20;;;;;;;5.83;3.33;;;;;;;17.04;56.43;94121.25;5011489;28;20553;-69
2022/08/12 05:35:05;;;;;;;3.33;2.20;;;;;;;16.75;57.53;94118.38;5003998;28;20660;-68
2022/08/12 05:38:54;;;;;;;4.47;2.40;;;;;;;17.24;56.22;94127.22;5001186;28;20280;-69
2022/08/12 05:40:58;;;;;;;8.47;2.43;;;;;;;17.81;54.28;94125.06;5004885;28;20207;-68
2022/08/12 05:43:42;;;;;;;6.13;2.87;;;;;;;17.89;53.26;94131.13;5008570;28;20290;-68
2022/08/12 05:46:31;;;;;;;5.23;2.43;;;;;;;17.69;54.89;94130.16;5005483;28;20210;-67
2022/08/12 05:49:15;;;;;;;7.43;2.37;;;;;;;18.06;53.63;94133.34;4999044;28;20217;-67
2022/08/12 05:52:00;;;;;;;8.80;2.30;;;;;;;18.27;52.47;94120.81;5000799;28;20558;-67
2022/08/12 05:54:45;;;;;;;2.87;2.30;;;;;;;17.96;52.88;94138.53;5002530;28;20290;-67
2022/08/12 05:57:30;;;;;;;5.83;2.57;;;;;;;18.33;52.15;94134.59;5000617;28;20208;-68
2022/08/12 06:00:16;;;;;;;7.30;2.47;;;;;;;18.49;52.72;94121.13;5010139;28;20206;-68
2022/08/12 06:03:04;;;;;;;4.93;2.33;;;;;;;18.43;51.38;94118.75;5008861;28;20258;-67
2022/08/12 06:05:51;;;;;;;8.47;2.50;;;;;;;18.27;53.03;94126.50;5000528;28;20311;-68
2022/08/12 06:08:35;;;;;;;4.73;2.50;;;;;;;18.69;51.92;94132.69;5002217;28;20196;-69
2022/08/12 06:11:21;;;;;;;6.67;2.77;;;;;;;18.90;51.23;94130.06;5003618;28;20211;-71
2022/08/12 06:14:07;;;;;;;9.13;2.50;;;;;;;19.01;51.04;94131.25;5003822;28;20579;-72
2022/08/12 06:16:51;;;;;;;5.37;2.10;;;;;;;18.46;51.35;94128.78;5002088;28;20199;-70
2022/08/12 06:19:35;;;;;;;5.50;3.10;;;;;;;18.77;51.31;94133.75;5010387;28;20220;-70
2022/08/12 06:22:19;;;;;;;4.03;2.70;;;;;;;19.17;51.14;94134.06;5008613;28;20191;-70
2022/08/12 06:25:04;;;;;;;4.23;2.23;;;;;;;19.31;49.61;94143.19;4995856;28;20228;-74
2022/08/12 06:27:49;;;;;;;6.60;2.60;;;;;;;19.19;49.67;94139.84;5003287;28;20200;-70
2022/08/12 06:30:35;;;;;;;7.17;2.50;;;;;;;18.90;50.47;94137.84;4998828;28;20227;-68
2022/08/12 06:33:19;;;;;;;2.73;1.80;;;;;;;19.46;48.86;94131.03;5000889;28;20196;-72
2022/08/12 06:36:04;;;;;;;2.50;2.30;;;;;;;19.54;48.53;94137.06;5005823;28;20192;-70
2022/08/12 06:38:48;;;;;;;5.60;2.37;;;;;;;19.68;49.27;94146.19;5003538;28;20580;-71
2022/08/12 06:44:35;;;;;;;5.17;2.20;;;;;;;20.18;48.42;94138.22;5002695;28;20205;-69
2022/08/12 06:47:20;;;;;;;8.60;2.50;;;;;;;20.26;47.51;94149.91;5002289;28;20204;-69
2022/08/12 06:50:05;;;;;;;3.73;2.60;;;;;;;20.06;48.60;94140.56;5000428;28;20248;-72
2022/08/12 06:52:50;;;;;;;5.27;2.40;;;;;;;20.09;48.72;94142.13;5006608;28;20207;-69
2022/08/12 06:55:35;;;;;;;7.73;2.00;;;;;;;20.01;48.42;94141.78;5004197;28;20200;-71
2022/08/12 06:58:22;;;;;;;3.33;2.23;;;;;;;20.24;47.68;94140.56;5007952;28;20578;-74
2022/08/12 07:01:06;;;;;;;3.27;2.33;;;;;;;20.50;47.63;94133.03;5008542;28;20196;-67
2022/08/12 07:03:52;;;;;;;5.47;2.17;;;;;;;20.42;47.81;94144.88;5011423;28;20196;-70
2022/08/12 07:06:36;;;;;;;5.17;2.50;;;;;;;20.63;46.76;94137.81;5002259;28;20669;-70
2022/08/12 07:09:21;;;;;;;4.63;1.93;;;;;;;20.29;47.36;94140.06;5000248;28;20707;-70
2022/08/12 07:12:18;;;;;;;8.27;2.00;;;;;;;20.67;47.65;94128.69;5009515;28;20207;-68
2022/08/12 07:15:02;;;;;;;4.53;1.90;;;;;;;21.08;45.72;94142.28;4994745;28;20203;-69
2022/08/12 07:17:46;;;;;;;3.10;2.13;;;;;;;20.96;45.80;94140.47;4999529;28;20537;-68
2022/08/12 07:20:34;;;;;;;5.77;2.43;;;;;;;20.83;46.09;94129.28;5009255;28;20191;-69
2022/08/12 07:23:19;;;;;;;3.03;2.50;;;;;;;21.03;47.46;94135.72;5004992;28;20641;-68
2022/08/12 07:26:06;;;;;;;3.60;2.40;;;;;;;21.57;45.95;94127.59;4998013;28;20207;-69
2022/08/12 07:28:50;;;;;;;2.73;2.27;;;;;;;21.13;44.98;94133.22;5005826;28;20208;-69
2022/08/12 07:31:36;;;;;;;4.43;2.38;;;;;;;21.29;45.34;94142.34;5000867;28;20475;-70
2022/08/12 07:34:22;;;;;;;5.37;2.40;;;;;;;21.54;44.81;94140.34;5008745;28;20191;-70
2022/08/12 07:37:06;;;;;;;5.07;1.80;;;;;;;21.39;45.19;94141.97;5008116;28;20208;-70
2022/08/12 07:39:50;;;;;;;3.65;2.33;;;;;;;21.58;46.56;94146.19;5000899;28;20287;-70
2022/08/12 07:42:35;;;;;;;4.53;1.85;;;;;;;21.27;45.29;94130.91;5004326;28;20606;-70
2022/08/12 07:45:19;;;;;;;3.88;2.05;;;;;;;21.60;44.47;94138.41;5000427;28;20197;-69
2022/08/12 07:48:04;;;;;;;2.55;2.00;;;;;;;21.71;43.84;94136.66;5006526;28;20672;-73
2022/08/12 07:50:49;;;;;;;7.47;2.45;;;;;;;22.08;45.22;94145.03;4995395;28;20333;-71
2022/08/12 07:53:34;;;;;;;6.05;2.10;;;;;;;21.95;42.70;94143.16;5000170;28;20230;-69
2022/08/12 07:56:18;;;;;;;4.80;2.03;;;;;;;22.06;42.13;94147.81;5006596;28;20200;-71
2022/08/12 07:59:03;;;;;;;2.95;1.88;;;;;;;22.24;41.82;94146.91;4993481;28;20205;-68
2022/08/12 08:01:48;;;;;;;3.55;1.80;;;;;;;21.91;43.16;94143.00;5007114;28;20748;-68
2022/08/12 08:07:35;;;;;;;3.75;2.08;;;;;;;21.73;42.44;94150.97;5005313;28;20261;-70
2022/08/12 08:10:19;;;;;;;2.47;2.00;;;;;;;21.76;42.61;94153.22;5000209;28;20227;-71
2022/08/12 08:13:05;;;;;;;2.38;1.90;;;;;;;22.13;41.21;94154.44;5006371;28;20203;-72
2022/08/12 08:15:52;;;;;;;3.58;1.90;;;;;;;22.16;42.54;94150.97;5004533;28;20204;-70
2022/08/12 08:18:37;;;;;;;4.35;1.90;;;;;;;22.17;43.85;94135.31;5004739;28;20287;-69
2022/08/12 08:21:21;;;;;;;2.55;1.85;;;;;;;21.93;42.47;94145.91;5005908;28;20218;-67
2022/08/12 08:24:14;;;;;;;2.13;1.92;;;;;;;22.28;41.98;94150.63;5004401;28;20271;-69
2022/08/12 08:26:59;;;;;;;2.03;1.80;;;;;;;22.41;42.12;94140.31;5002095;28;20203;-69
2022/08/12 08:29:44;;;;;;;3.20;1.95;;;;;;;22.58;42.88;94145.13;5006809;28;20254;-68
2022/08/12 08:32:28;;;;;;;8.93;2.05;;;;;;;23.07;40.94;94143.69;5009821;28;20188;-68
2022/08/12 08:35:13;;;;;;;10.30;2.30;;;;;;;23.14;39.65;94133.91;5025235;28;20234;-70
2022/08/12 08:38:10;;;;;;;3.90;1.73;;;;;;;22.84;41.28;94148.03;5012633;28;20199;-70
2022/08/12 08:43:59;;;;;;;6.00;2.10;;;;;;;22.10;42.25;94147.19;5012364;28;20277;-72
2022/08/12 08:46:43;;;;;;;4.43;2.03;;;;;;;22.56;40.08;94150.75;5011062;28;20203;-74
2022/08/12 08:49:27;;;;;;;15.43;2.72;;;;;;;22.77;41.28;94146.41;5003848;28;20220;-69
2022/08/12 08:52:12;;;;;;;6.30;2.03;;;;;;;22.69;41.97;94151.88;5001873;28;20203;-69
2022/08/12 08:54:56;;;;;;;3.03;2.00;;;;;;;22.75;41.31;94144.22;5004561;28;20661;-69
2022/08/12 08:57:48;;;;;;;4.00;1.88;;;;;;;23.03;39.66;94150.00;5008156;28;20195;-71
2022/08/12 09:00:32;;;;;;;6.18;2.10;;;;;;;22.48;40.10;94139.81;5010573;28;20208;-75
2022/08/12 09:03:17;;;;;;;4.05;1.70;;;;;;;22.75;40.34;94152.06;5003911;28;20215;-76
2022/08/12 09:06:02;;;;;;;3.20;2.20;;;;;;;22.76;40.22;94157.13;5007062;28;20706;-73
2022/08/12 09:08:47;;;;;;;4.00;1.90;;;;;;;23.24;40.12;94145.59;5001060;28;20207;-71
2022/08/12 09:14:34;;;;;;;2.00;1.80;;;;;;;22.93;39.53;94153.31;5002468;28;20580;-71
2022/08/12 09:17:21;;;;;;;5.10;1.90;;;;;;;23.17;38.79;94146.84;5006194;28;20566;-73
2022/08/12 09:20:05;;;;;;;5.90;2.00;;;;;;;22.64;39.80;94150.28;5011741;28;20195;-75
2022/08/12 09:22:50;;;;;;;8.95;2.05;;;;;;;22.68;40.09;94156.84;5000941;28;20250;-73
2022/08/12 09:25:34;;;;;;;3.45;1.95;;;;;;;22.58;40.49;94147.97;5005071;28;20201;-72
2022/08/12 09:28:24;;;;;;;4.50;1.70;;;;;;;23.23;38.87;94147.00;5008469;28;20205;-72
2022/08/12 09:31:08;;;;;;;2.28;1.73;;;;;;;23.61;39.45;94156.66;5004159;28;20242;-71
2022/08/12 09:33:53;;;;;;;3.22;1.67;;;;;;;23.29;39.20;94158.59;5006693;28;20214;-73
2022/08/12 09:36:40;;;;;;;2.83;1.60;;;;;;;23.70;38.01;94144.00;5003341;28;20258;-71
2022/08/12 09:39:24;;;;;;;3.45;1.77;;;;;;;23.79;36.73;94145.66;5000666;28;20227;-70
2022/08/12 09:45:21;;;;;;;2.58;1.80;;;;;;;23.50;39.29;94152.06;5011830;28;20203;-70
2022/08/12 09:48:05;;;;;;;7.03;1.70;;;;;;;23.65;38.78;94147.44;5011243;28;20564;-68
2022/08/12 09:50:50;;;;;;;4.25;1.83;;;;;;;23.83;39.01;94138.56;5000717;28;20216;-72
2022/08/12 09:53:35;;;;;;;3.63;1.67;;;;;;;23.64;38.39;94149.56;5006831;28;20208;-72
2022/08/12 09:56:20;;;;;;;5.40;1.98;;;;;;;23.58;39.68;94140.81;5002809;28;20204;-71
2022/08/12 09:59:08;;;;;;;2.80;1.73;;;;;;;24.25;38.19;94136.06;5007907;28;20203;-72
2022/08/12 10:01:54;;;;;;;3.95;2.13;;;;;;;24.34;38.57;94138.41;5002050;28;20207;-70
2022/08/12 10:04:47;;;;;;;3.20;2.00;;;;;;;24.40;38.24;94134.97;5005393;28;20307;-71
2022/08/12 10:07:31;;;;;;;6.57;1.90;;;;;;;24.56;37.88;94130.31;5003340;28;20196;-69
2022/08/12 10:10:15;;;;;;;6.13;2.08;;;;;;;23.39;41.43;94138.88;5006571;28;20251;-69
2022/08/12 10:16:03;;;;;;;4.75;1.67;;;;;;;24.59;39.08;94133.97;5003621;28;20600;-68
2022/08/12 10:18:56;;;;;;;5.07;1.77;;;;;;;24.80;35.37;94130.16;4999784;28;20775;-69
2022/08/12 10:21:41;;;;;;;2.33;1.58;;;;;;;24.93;37.36;94131.16;5008890;28;20232;-67
2022/08/12 10:24:25;;;;;;;1.58;1.33;;;;;;;24.23;34.86;94127.41;4994227;28;20197;-70
2022/08/12 10:30:14;;;;;;;2.97;1.67;;;;;;;24.74;37.72;94124.28;4994088;28;20231;-72
2022/08/12 10:32:58;;;;;;;3.95;1.75;;;;;;;24.44;35.87;94118.59;4997573;28;20306;-70
2022/08/12 10:35:43;;;;;;;7.82;1.60;;;;;;;24.66;36.67;94123.38;5009697;28;20204;-71
2022/08/12 10:38:27;;;;;;;2.75;1.77;;;;;;;24.80;36.57;94112.94;5005791;28;20587;-71
2022/08/12 10:44:15;;;;;;;4.80;1.83;;;;;;;24.06;38.23;94114.84;5006084;28;20265;-71
2022/08/12 10:46:59;;;;;;;5.72;1.55;;;;;;;23.58;39.87;94109.34;4995506;28;20200;-69
2022/08/12 10:49:45;;;;;;;3.13;1.70;;;;;;;24.29;39.02;94113.22;5003785;28;20302;-74
2022/08/12 10:52:29;;;;;;;3.65;1.45;;;;;;;23.68;38.55;94106.75;5009934;28;20204;-73
2022/08/12 10:55:14;;;;;;;6.03;1.73;;;;;;;24.26;38.04;94109.59;5002284;28;20208;-69
2022/08/12 10:57:59;;;;;;;4.00;1.38;;;;;;;24.76;37.09;94109.25;5008563;28;20196;-70
2022/08/12 11:00:44;;;;;;;2.13;1.30;;;;;;;25.35;36.62;94117.66;5001946;28;20505;-76
2022/08/12 11:03:28;;;;;;;3.60;1.48;;;;;;;25.19;37.59;94110.88;5004968;28;20200;-71
2022/08/12 11:06:13;;;;;;;2.00;1.63;;;;;;;24.14;38.18;94112.88;5010251;28;20310;-74
2022/08/12 11:08:57;;;;;;;7.00;1.60;;;;;;;24.08;38.86;94118.47;5001701;28;20196;-72
2022/08/12 11:11:48;;;;;;;4.78;1.50;;;;;;;23.69;39.24;94111.09;5002281;28;20270;-72
2022/08/12 11:14:34;;;;;;;8.10;1.90;;;;;;;23.53;41.36;94119.22;5003986;28;20239;-70
2022/08/12 11:17:19;;;;;;;2.50;1.60;;;;;;;24.15;39.02;94113.59;5000402;28;20272;-68
2022/08/12 11:20:03;;;;;;;3.35;1.50;;;;;;;23.03;40.50;94109.28;5006704;28;20801;-72
2022/08/12 11:22:57;;;;;;;2.95;1.95;;;;;;;23.43;41.25;94104.66;5004946;28;20204;-69
2022/08/12 11:25:44;;;;;;;2.35;1.65;;;;;;;24.12;39.44;94100.66;4996001;28;20611;-69
2022/08/12 11:28:28;;;;;;;2.78;1.70;;;;;;;24.02;38.81;94109.00;5003445;28;20235;-69
2022/08/12 11:31:12;;;;;;;3.00;2.10;;;;;;;24.68;40.75;94106.22;5004745;28;20269;-74
2022/08/12 11:33:57;;;;;;;2.60;1.85;;;;;;;23.57;40.23;94113.63;4999817;28;20207;-68
2022/08/12 11:36:52;;;;;;;2.88;1.65;;;;;;;23.17;40.42;94115.38;4999556;28;20200;-73
2022/08/12 11:39:36;;;;;;;2.97;1.60;;;;;;;22.84;40.24;94116.59;5001789;28;20198;-69
2022/08/12 11:42:21;;;;;;;2.80;1.77;;;;;;;23.58;39.96;94103.63;5006797;28;20211;-70
2022/08/12 11:45:05;;;;;;;3.75;1.92;;;;;;;24.21;39.90;94096.59;4994892;28;20208;-70
2022/08/12 11:47:49;;;;;;;3.53;1.80;;;;;;;24.80;36.94;94095.75;5003570;28;20557;-69
2022/08/12 11:50:33;;;;;;;4.15;1.23;;;;;;;24.62;37.11;94097.50;5009431;28;20273;-72
2022/08/12 11:53:17;;;;;;;2.03;1.60;;;;;;;25.07;36.96;94094.16;5008298;28;20552;-69
2022/08/12 11:56:04;;;;;;;1.65;1.20;;;;;;;25.16;34.70;94107.25;4997759;28;20210;-76
2022/08/12 11:58:49;;;;;;;7.50;1.42;;;;;;;24.23;36.14;94110.97;4999006;28;20219;-70
2022/08/12 12:01:33;;;;;;;5.05;1.30;;;;;;;25.00;36.33;94095.44;5003278;28;21377;-71
2022/08/12 12:04:17;;;;;;;4.80;1.23;;;;;;;25.16;35.10;94095.78;5005377;28;20231;-68
2022/08/12 12:07:01;;;;;;;2.72;1.25;;;;;;;24.63;34.21;94088.19;4998192;28;20219;-68
2022/08/12 12:09:46;;;;;;;3.00;1.52;;;;;;;25.08;35.15;94089.88;5009436;28;20273;-71
2022/08/12 12:12:30;;;;;;;4.30;1.70;;;;;;;24.83;34.79;94082.16;5003386;28;20211;-70
2022/08/12 12:15:15;;;;;;;7.78;1.77;;;;;;;24.85;35.12;94079.34;5005789;28;20681;-71
2022/08/12 12:18:00;;;;;;;3.15;1.63;;;;;;;25.18;33.46;94080.75;5000804;28;20254;-70
2022/08/12 12:20:44;;;;;;;2.58;1.13;;;;;;;25.14;33.23;94077.78;5004172;28;20195;-68
2022/08/12 12:23:28;;;;;;;2.97;1.50;;;;;;;24.66;33.37;94080.38;4983065;28;20235;-70
2022/08/12 12:26:12;;;;;;;1.55;1.13;;;;;;;24.84;35.41;94069.28;5006234;28;20254;-70
2022/08/12 12:28:56;;;;;;;3.58;1.23;;;;;;;25.50;32.08;94064.09;4999012;28;20279;-72
2022/08/12 12:31:41;;;;;;;1.63;1.27;;;;;;;25.81;31.55;94062.50;4989362;28;20204;-71
2022/08/12 12:34:25;;;;;;;1.52;1.00;;;;;;;25.92;32.47;94058.41;4999059;28;20204;-71
2022/08/12 12:37:11;;;;;;;2.25;1.30;;;;;;;25.31;33.35;94060.19;5009519;28;20223;-71
2022/08/12 12:39:59;;;;;;;5.70;1.23;;;;;;;26.38;32.23;94060.53;5003542;28;20271;-68
2022/08/12 12:42:43;;;;;;;1.63;1.00;;;;;;;26.52;31.56;94060.72;4998598;28;20287;-70
2022/08/12 12:45:28;;;;;;;3.35;1.55;;;;;;;24.53;33.41;94051.47;5005635;28;20691;-69
2022/08/12 12:48:16;;;;;;;2.08;1.20;;;;;;;25.76;32.47;94055.25;5008401;28;20217;-69
2022/08/12 12:51:15;;;;;;;1.02;1.00;;;;;;;25.86;32.21;94041.03;5007056;28;20223;-69
2022/08/12 12:53:59;;;;;;;3.22;1.50;;;;;;;26.56;31.99;94047.13;5006056;28;20389;-69
2022/08/12 12:56:48;;;;;;;2.75;1.15;;;;;;;26.40;30.92;94037.56;5003833;28;20196;-72
2022/08/12 12:59:32;;;;;;;4.32;1.38;;;;;;;26.54;30.89;94029.84;5010696;28;20200;-71
2022/08/12 13:02:16;;;;;;;4.30;1.27;;;;;;;25.84;31.77;94038.16;5008097;28;20269;-71
2022/08/12 13:05:00;;;;;;;1.52;1.10;;;;;;;24.70;33.72;94040.34;5005628;28;20224;-73
2022/08/12 13:07:44;;;;;;;3.85;1.40;;;;;;;24.17;34.30;94037.06;5006169;28;20200;-71
2022/08/12 13:10:30;;;;;;;2.72;1.40;;;;;;;25.34;34.18;94041.59;5009404;28;20249;-72
2022/08/12 13:13:16;;;;;;;2.17;1.27;;;;;;;25.23;34.44;94034.25;5005473;28;20208;-70
2022/08/12 13:16:00;;;;;;;1.38;1.20;;;;;;;25.37;34.26;94023.00;4996372;28;20698;-69
2022/08/12 13:18:49;;;;;;;3.28;1.10;;;;;;;25.39;33.15;94025.91;5011059;28;20256;-70
2022/08/12 13:21:33;;;;;;;3.03;1.30;;;;;;;24.81;34.02;94033.41;5006599;28;20200;-68
2022/08/12 13:24:17;;;;;;;1.48;1.25;;;;;;;25.57;32.76;94027.66;4999505;28;20574;-74
2022/08/12 13:27:01;;;;;;;2.45;1.20;;;;;;;26.22;31.20;94028.66;5002909;28;20421;-72
2022/08/12 13:29:46;;;;;;;1.88;1.40;;;;;;;26.22;32.76;94028.66;5007509;28;20681;-72
2022/08/12 13:32:30;;;;;;;1.63;1.02;;;;;;;25.44;31.43;94034.59;4993776;28;20556;-70
2022/08/12 13:35:15;;;;;;;1.50;1.00;;;;;;;25.02;32.73;94028.81;5012498;28;20207;-72
2022/08/12 13:38:01;;;;;;;2.65;1.10;;;;;;;25.55;32.42;94019.00;5004875;28;20207;-73
2022/08/12 13:40:45;;;;;;;4.82;1.27;;;;;;;26.67;31.22;94019.22;5012038;28;20195;-70
2022/08/12 13:43:29;;;;;;;4.05;1.00;;;;;;;26.54;31.63;94023.38;5004846;28;20196;-73
2022/08/12 13:46:13;;;;;;;2.50;0.95;;;;;;;27.08;30.77;94017.59;5004252;28;20318;-71
2022/08/12 13:48:58;;;;;;;2.55;0.93;;;;;;;26.38;31.92;94017.41;5008703;28;20203;-73
2022/08/12 13:51:42;;;;;;;2.10;1.17;;;;;;;26.27;31.52;94012.97;5003076;28;20295;-71
2022/08/12 13:54:26;;;;;;;4.97;1.00;;;;;;;26.14;31.63;94012.78;5003136;28;20200;-69
2022/08/12 13:57:13;;;;;;;3.42;1.20;;;;;;;25.89;30.75;94013.84;5004020;28;20215;-71
2022/08/12 13:59:58;;;;;;;1.95;1.00;;;;;;;26.55;30.91;94007.59;5010912;28;20235;-70
2022/08/12 14:02:42;;;;;;;3.20;0.98;;;;;;;26.38;32.26;94011.69;4997891;28;20286;-72
2022/08/12 14:05:27;;;;;;;1.48;0.85;;;;;;;25.21;32.29;94019.84;5010277;28;20211;-71
2022/08/12 14:08:14;;;;;;;1.10;0.70;;;;;;;25.67;31.02;94013.50;5000222;28;20227;-71
2022/08/12 14:10:58;;;;;;;8.73;1.38;;;;;;;25.56;30.78;94014.69;5005374;28;20228;-70
2022/08/12 14:13:42;;;;;;;1.65;0.93;;;;;;;26.08;29.82;94015.56;5008013;28;20203;-72
2022/08/12 14:16:28;;;;;;;4.03;1.05;;;;;;;26.16;31.27;94009.22;4998013;28;20712;-71
2022/08/12 14:19:12;;;;;;;3.97;1.20;;;;;;;26.31;31.06;93995.78;4997509;28;20196;-68
2022/08/12 14:21:56;;;;;;;1.45;0.98;;;;;;;26.52;30.24;94009.00;5011703;28;20211;-72
2022/08/12 14:24:41;;;;;;;7.28;1.20;;;;;;;26.57;31.86;94004.75;5004377;28;20664;-70
2022/08/12 14:27:27;;;;;;;3.13;1.10;;;;;;;26.54;30.71;94006.13;5004061;28;20197;-75
2022/08/12 14:30:11;;;;;;;1.20;1.00;;;;;;;26.31;31.13;93992.91;5001590;28;20252;-68
2022/08/12 14:32:56;;;;;;;2.58;1.20;;;;;;;26.70;29.14;94006.34;4998421;28;20656;-75
2022/08/12 14:35:43;;;;;;;5.82;1.40;;;;;;;26.47;29.88;93996.00;5010778;28;20203;-70
2022/08/12 14:38:30;;;;;;;1.63;0.90;;;;;;;26.28;30.70;94002.94;5001134;28;20613;-73
2022/08/12 14:41:19;;;;;;;1.77;1.02;;;;;;;27.05;28.97;94009.63;5001287;28;20196;-71
2022/08/12 14:44:03;;;;;;;1.50;1.00;;;;;;;26.92;30.00;94009.50;4995494;28;20207;-75
2022/08/12 14:46:56;;;;;;;1.10;0.95;;;;;;;26.67;30.44;94007.72;5000969;28;20204;-76
2022/08/12 14:49:40;;;;;;;0.93;0.70;;;;;;;26.48;30.92;94003.19;5003066;28;20258;-74